ENBO

Bodø Airport

Bodø, Norway
METAR ENBO 151550Z 08012KT 9999 FEW030 M03/M07 Q1026
Observed Flight Rules
Dec-15 @ 15:50 UTC (14 minutes ago) Visual Flight Rules
Wind Visibility Clouds
80° at 12 knots 10,000+ meters
  • Few at 3,000' AGL
Temperatures Readings
Current -3°C / 27°F
Dewpoint -7°C / 19°F
Humidity 74%
Altimeter 30.3" Hg
Pressure 1026 hPa
Elevation 13
METAR ENBO 151550Z 08012KT 9999 FEW030 M03/M07 Q1026
Observed Flight Rules
Dec-15 @ 15:50 UTC
(14 minutes ago)
VFR
Wind Visibility
80° at 12 knots 10,000+ meters
Clouds
  • Few at 3,000' AGL
Temperature Dewpoint
-3°C / 27°F -7°C / 19°F
Humidity Altimeter Pressure
74% 30.3" Hg 1026 hPa